Time;durP1;ratioP1;P1;durP2;ratioP2;P2;SDS_P1;SDS_P2;PMS_P1;PMS_P2;Temp;Humidity;BMP_temperature;BMP_pressure;BME280_temperature;BME280_humidity;BME280_pressure;Samples;Min_cycle;Max_cycle;Signal;HPM_P1;HPM_P2
2023/01/19 00:00:31;;;;;;;;;;;;;;;14.26;61.57;99715.06;2116996;27;20041;-62
2023/01/19 00:01:33;;;;;;;;;;;;;;;14.26;61.78;99710.41;2118492;27;19927;-62
2023/01/19 00:02:36;;;;;;;;;;;;;;;14.26;61.96;99717.75;2106801;28;19924;-64
2023/01/19 00:03:39;;;;;;;;;;;;;;;14.26;61.72;99718.53;2109652;28;20024;-60
2023/01/19 00:04:41;;;;;;;;;;;;;;;14.24;61.63;99714.66;2117037;27;19931;-63
2023/01/19 00:05:43;;;;;;;;;;;;;;;14.25;61.18;99716.22;2117858;27;19949;-61
2023/01/19 00:06:46;;;;;;;;;;;;;;;14.24;61.83;99712.72;2118331;27;19939;-62
2023/01/19 00:07:48;;;;;;;;;;;;;;;14.24;61.61;99707.28;2117487;27;19928;-61
2023/01/19 00:08:50;;;;;;;;;;;;;;;14.24;61.09;99711.94;2114737;27;19935;-60
2023/01/19 00:09:52;;;;;;;;;;;;;;;14.24;61.44;99706.50;2116783;27;19935;-62
2023/01/19 00:10:54;;;;;;;;;;;;;;;14.23;61.22;99711.16;2118218;27;19927;-62
2023/01/19 00:11:56;;;;;;;;;;;;;;;14.23;61.46;99715.81;2115750;27;19927;-62
2023/01/19 00:12:58;;;;;;;;;;;;;;;14.23;61.49;99710.38;2116398;27;19928;-62
2023/01/19 00:14:00;;;;;;;;;;;;;;;14.23;61.68;99707.66;2116094;27;20386;-62
2023/01/19 00:15:04;;;;;;;;;;;;;;;14.22;61.28;99714.25;2118351;27;19935;-61
2023/01/19 00:16:06;;;;;;;;;;;;;;;14.22;61.17;99714.25;2118218;27;19963;-63
2023/01/19 00:17:08;;;;;;;;;;;;;;;14.23;61.31;99715.81;2116309;27;19997;-62
2023/01/19 00:18:10;;;;;;;;;;;;;;;14.22;61.34;99716.97;2115772;27;19927;-63
2023/01/19 00:19:14;;;;;;;;;;;;;;;14.22;61.54;99716.97;2117751;27;20375;-63
2023/01/19 00:20:16;;;;;;;;;;;;;;;14.21;61.52;99712.69;2116098;27;19928;-62
2023/01/19 00:21:20;;;;;;;;;;;;;;;14.21;61.53;99716.19;2117004;27;19928;-62
2023/01/19 00:22:21;;;;;;;;;;;;;;;14.20;61.32;99717.38;2117329;27;19950;-63
2023/01/19 00:23:24;;;;;;;;;;;;;;;14.20;61.29;99717.38;2117061;27;19934;-62
2023/01/19 00:24:26;;;;;;;;;;;;;;;14.20;61.63;99722.81;2116267;27;19932;-63
2023/01/19 00:25:28;;;;;;;;;;;;;;;14.20;61.47;99724.72;2110474;28;19928;-61
2023/01/19 00:26:30;;;;;;;;;;;;;;;14.20;61.10;99724.72;2109238;28;19979;-62
2023/01/19 00:27:33;;;;;;;;;;;;;;;14.20;61.08;99722.03;2116832;27;19935;-62
2023/01/19 00:28:35;;;;;;;;;;;;;;;14.20;61.22;99722.81;2116538;27;19932;-62
2023/01/19 00:29:38;;;;;;;;;;;;;;;14.20;61.38;99722.03;2117007;27;19928;-62
2023/01/19 00:30:40;;;;;;;;;;;;;;;14.18;61.34;99724.34;2108471;28;19939;-61
2023/01/19 00:31:43;;;;;;;;;;;;;;;14.19;61.17;99725.91;2108405;28;20291;-63
2023/01/19 00:32:45;;;;;;;;;;;;;;;14.18;60.78;99722.41;2118416;27;19958;-59
2023/01/19 00:33:50;;;;;;;;;;;;;;;14.18;60.83;99721.63;2116611;27;19927;-62
2023/01/19 00:34:53;;;;;;;;;;;;;;;14.18;61.15;99721.63;2116614;27;20385;-61
2023/01/19 00:35:55;;;;;;;;;;;;;;;14.18;61.07;99729.78;2118833;27;19938;-62
2023/01/19 00:37:00;;;;;;;;;;;;;;;14.17;60.67;99729.03;2117517;27;19947;-63
2023/01/19 00:38:03;;;;;;;;;;;;;;;14.17;60.90;99722.81;2116166;27;20367;-62
2023/01/19 00:39:05;;;;;;;;;;;;;;;14.17;61.06;99722.81;2116355;27;19932;-61
2023/01/19 00:40:08;;;;;;;;;;;;;;;14.16;61.21;99727.44;2109369;28;20422;-61
2023/01/19 00:41:09;;;;;;;;;;;;;;;14.16;60.76;99721.25;2108330;28;19931;-63
2023/01/19 00:43:41;;;;;;;;;;;;;;;14.16;60.59;99730.16;2085806;28;19940;-63
2023/01/19 00:44:42;;;;;;;;;;;;;;;14.15;60.85;99730.56;2104428;27;19935;-63
2023/01/19 00:45:45;;;;;;;;;;;;;;;14.15;60.95;99730.56;2116489;27;19938;-62
2023/01/19 00:46:47;;;;;;;;;;;;;;;14.14;60.55;99739.88;2116832;27;20031;-62
2023/01/19 00:47:55;;;;;;;;;;;;;;;14.14;60.45;99735.22;2117895;27;20499;-59
2023/01/19 00:48:57;;;;;;;;;;;;;;;14.14;60.64;99742.59;2116810;27;19927;-63
2023/01/19 00:50:01;;;;;;;;;;;;;;;14.13;60.84;99743.75;2117212;27;19927;-62
2023/01/19 00:51:03;;;;;;;;;;;;;;;14.13;61.09;99735.63;2116438;27;19997;-61
2023/01/19 00:52:06;;;;;;;;;;;;;;;14.12;60.83;99734.06;2117669;27;19936;-61
2023/01/19 00:53:08;;;;;;;;;;;;;;;14.12;60.57;99737.56;2116707;27;19928;-61
2023/01/19 00:54:10;;;;;;;;;;;;;;;14.11;60.88;99730.56;2116590;27;20402;-62
2023/01/19 00:55:14;;;;;;;;;;;;;;;14.12;60.30;99734.06;2115800;27;19932;-62
2023/01/19 00:56:16;;;;;;;;;;;;;;;14.13;60.85;99735.63;2114953;27;19923;-62
2023/01/19 00:57:19;;;;;;;;;;;;;;;14.12;60.61;99726.69;2118512;27;20013;-60
2023/01/19 00:58:22;;;;;;;;;;;;;;;14.11;60.50;99732.50;2117159;27;19931;-62
2023/01/19 00:59:24;;;;;;;;;;;;;;;14.11;60.13;99735.22;2116285;27;19931;-62
2023/01/19 01:00:27;;;;;;;;;;;;;;;14.11;60.18;99735.22;2116360;27;19939;-61
2023/01/19 01:01:28;;;;;;;;;;;;;;;14.11;60.45;99729.81;2115692;27;20434;-61
2023/01/19 01:02:48;;;;;;;;;;;;;;;14.10;60.26;99731.72;2117931;27;20374;-61
2023/01/19 01:03:50;;;;;;;;;;;;;;;14.10;60.27;99739.09;2118163;27;20002;-61
2023/01/19 01:04:53;;;;;;;;;;;;;;;14.10;60.26;99744.53;2117670;27;19934;-62
2023/01/19 01:05:56;;;;;;;;;;;;;;;14.09;59.87;99738.34;2116624;27;20306;-62
2023/01/19 01:06:59;;;;;;;;;;;;;;;14.10;59.91;99744.53;2116582;27;19927;-62
2023/01/19 01:08:01;;;;;;;;;;;;;;;14.10;60.35;99741.81;2116381;27;19931;-62
2023/01/19 01:09:10;;;;;;;;;;;;;;;14.09;60.25;99737.56;2118596;27;19930;-58
2023/01/19 01:10:14;;;;;;;;;;;;;;;14.09;60.26;99745.69;2117281;27;20026;-62
2023/01/19 01:11:16;;;;;;;;;;;;;;;14.09;60.26;99748.41;2115680;27;19931;-62
2023/01/19 01:12:18;;;;;;;;;;;;;;;14.09;60.21;99742.97;2117437;27;19931;-63
2023/01/19 01:13:20;;;;;;;;;;;;;;;14.08;60.31;99746.88;2114644;27;19932;-62
2023/01/19 01:14:23;;;;;;;;;;;;;;;14.09;59.87;99745.69;2118600;27;20394;-61
2023/01/19 01:15:26;;;;;;;;;;;;;;;14.09;59.86;99745.69;2118274;27;20359;-61
2023/01/19 01:16:29;;;;;;;;;;;;;;;14.07;60.08;99746.09;2117009;27;19928;-61
2023/01/19 01:17:30;;;;;;;;;;;;;;;14.08;59.86;99752.28;2116473;27;19931;-62
2023/01/19 01:18:33;;;;;;;;;;;;;;;14.07;60.18;99740.66;2116414;27;19923;-62
2023/01/19 01:19:34;;;;;;;;;;;;;;;14.07;59.94;99750.72;2115973;27;19928;-60
2023/01/19 01:20:37;;;;;;;;;;;;;;;14.07;59.74;99743.38;2117913;27;19962;-62
2023/01/19 01:21:40;;;;;;;;;;;;;;;14.07;60.10;99746.09;2116348;27;19927;-61
2023/01/19 01:22:44;;;;;;;;;;;;;;;14.06;60.13;99743.75;2115637;27;19931;-62
2023/01/19 01:23:45;;;;;;;;;;;;;;;14.08;59.66;99752.28;2116258;27;20543;-61
2023/01/19 01:24:48;;;;;;;;;;;;;;;14.07;60.02;99750.72;2115323;27;20375;-62
2023/01/19 01:25:50;;;;;;;;;;;;;;;14.06;59.98;99754.63;2116401;27;19923;-62
2023/01/19 01:26:52;;;;;;;;;;;;;;;14.07;59.59;99756.16;2116612;27;19927;-62
2023/01/19 01:27:54;;;;;;;;;;;;;;;14.06;59.56;99751.91;2117445;27;19924;-61
2023/01/19 01:28:56;;;;;;;;;;;;;;;14.06;59.54;99751.91;2118017;27;19927;-61
2023/01/19 01:29:58;;;;;;;;;;;;;;;14.06;59.89;99758.13;2117158;27;19934;-61
2023/01/19 01:31:01;;;;;;;;;;;;;;;14.05;59.99;99753.06;2115886;27;19927;-62
2023/01/19 01:32:03;;;;;;;;;;;;;;;14.05;59.67;99755.78;2116160;27;20397;-61
2023/01/19 01:33:05;;;;;;;;;;;;;;;14.05;59.78;99766.66;2115470;27;19924;-59
2023/01/19 01:34:07;;;;;;;;;;;;;;;14.05;59.45;99761.22;2117662;27;19935;-61
2023/01/19 01:35:10;;;;;;;;;;;;;;;14.05;59.84;99761.22;2115679;27;19927;-57
2023/01/19 01:36:12;;;;;;;;;;;;;;;14.05;59.69;99758.50;2117227;27;19968;-62
2023/01/19 01:37:16;;;;;;;;;;;;;;;14.05;59.56;99761.22;2115718;27;19931;-62
2023/01/19 01:38:17;;;;;;;;;;;;;;;14.04;59.81;99768.56;2115923;27;19927;-59
2023/01/19 01:39:20;;;;;;;;;;;;;;;14.05;59.80;99763.94;2118597;27;20381;-58
2023/01/19 01:40:22;;;;;;;;;;;;;;;14.04;59.82;99765.09;2116860;27;19923;-62
2023/01/19 01:41:25;;;;;;;;;;;;;;;14.05;59.65;99772.06;2115047;27;20306;-62
2023/01/19 01:42:28;;;;;;;;;;;;;;;14.03;59.50;99764.31;2115783;27;20034;-59
2023/01/19 01:43:41;;;;;;;;;;;;;;;14.04;59.62;99762.38;2117910;27;19928;-61
2023/01/19 01:44:48;;;;;;;;;;;;;;;14.04;59.51;99767.78;2117777;27;19928;-61
2023/01/19 01:45:52;;;;;;;;;;;;;;;14.03;59.91;99771.69;2117365;27;19927;-62
2023/01/19 01:46:54;;;;;;;;;;;;;;;14.03;59.66;99771.69;2117740;27;19931;-62
2023/01/19 01:48:00;;;;;;;;;;;;;;;14.03;59.33;99772.47;2116351;27;19934;-62
2023/01/19 01:49:03;;;;;;;;;;;;;;;14.03;59.64;99774.41;2115606;27;19932;-62
2023/01/19 01:50:10;;;;;;;;;;;;;;;14.03;59.89;99772.47;2118056;27;20397;-61
2023/01/19 01:51:22;;;;;;;;;;;;;;;14.03;59.64;99772.47;2117388;27;19931;-62
2023/01/19 01:52:27;;;;;;;;;;;;;;;14.03;59.76;99771.69;2116733;27;19924;-60
2023/01/19 01:53:30;;;;;;;;;;;;;;;14.03;59.45;99772.47;2115890;27;19927;-60
2023/01/19 01:54:33;;;;;;;;;;;;;;;14.03;59.89;99772.47;2116587;27;19932;-61
2023/01/19 01:55:37;;;;;;;;;;;;;;;14.03;59.62;99769.75;2117019;27;20030;-62
2023/01/19 01:56:41;;;;;;;;;;;;;;;14.04;59.80;99778.66;2116790;27;20424;-62
2023/01/19 01:57:46;;;;;;;;;;;;;;;14.03;59.24;99774.41;2116408;27;20371;-61
2023/01/19 01:58:49;;;;;;;;;;;;;;;14.03;59.70;99775.19;2116603;27;19993;-59
2023/01/19 01:59:51;;;;;;;;;;;;;;;14.03;59.62;99777.91;2114450;27;20269;-62
2023/01/19 02:03:37;;;;;;;;;;;;;;;14.03;59.35;99779.81;2116749;27;20225;-61
2023/01/19 02:04:39;;;;;;;;;;;;;;;14.02;59.30;99776.31;2117698;27;19927;-61
2023/01/19 02:05:43;;;;;;;;;;;;;;;14.02;59.60;99780.97;2116602;27;19928;-60
2023/01/19 02:13:36;;;;;;;;;;;;;;;14.02;58.99;99787.19;2117187;27;19973;-61
2023/01/19 02:14:37;;;;;;;;;;;;;;;14.02;59.03;99786.41;2116112;27;19931;-62
2023/01/19 02:15:40;;;;;;;;;;;;;;;14.02;59.31;99783.69;2116413;27;20833;-60
2023/01/19 02:16:41;;;;;;;;;;;;;;;14.03;59.01;99782.53;2116983;27;19928;-61
2023/01/19 02:17:44;;;;;;;;;;;;;;;14.02;59.06;99778.25;2116860;27;19970;-62
2023/01/19 02:18:46;;;;;;;;;;;;;;;14.03;58.98;99785.25;2108780;28;19931;-60
2023/01/19 02:19:49;;;;;;;;;;;;;;;14.02;58.92;99789.13;2109163;28;20046;-58
2023/01/19 02:20:55;;;;;;;;;;;;;;;14.02;59.27;99794.53;2116885;27;19939;-61
2023/01/19 02:22:01;;;;;;;;;;;;;;;14.01;58.88;99793.78;2115595;27;19927;-61
2023/01/19 02:23:06;;;;;;;;;;;;;;;14.02;59.38;99789.91;2117007;27;20546;-62
2023/01/19 02:24:10;;;;;;;;;;;;;;;14.01;59.12;99784.84;2117282;27;19935;-61
2023/01/19 02:25:12;;;;;;;;;;;;;;;14.01;59.19;99784.84;2115336;27;20306;-62
2023/01/19 02:26:16;;;;;;;;;;;;;;;14.02;59.08;99786.41;2116100;27;19928;-60
2023/01/19 02:27:18;;;;;;;;;;;;;;;14.02;58.83;99789.13;2117548;27;20259;-61
2023/01/19 02:28:21;;;;;;;;;;;;;;;14.01;59.17;99790.28;2114307;27;19951;-62
2023/01/19 02:29:24;;;;;;;;;;;;;;;14.01;59.01;99784.84;2107483;28;19928;-62
2023/01/19 02:30:27;;;;;;;;;;;;;;;14.01;59.33;99790.28;2108016;28;19942;-60
2023/01/19 02:31:30;;;;;;;;;;;;;;;14.00;58.70;99789.50;2115646;27;20436;-59
2023/01/19 02:32:33;;;;;;;;;;;;;;;13.99;59.10;99787.97;2116244;27;20088;-59
2023/01/19 02:33:34;;;;;;;;;;;;;;;14.00;58.69;99794.94;2115877;27;19928;-61
2023/01/19 02:34:37;;;;;;;;;;;;;;;14.01;58.69;99795.72;2115565;27;20398;-61
2023/01/19 02:35:39;;;;;;;;;;;;;;;14.00;58.60;99796.88;2116697;27;19928;-62
2023/01/19 02:36:44;;;;;;;;;;;;;;;14.00;58.55;99796.88;2106883;28;19931;-61
2023/01/19 02:37:46;;;;;;;;;;;;;;;14.00;58.98;99796.88;2107650;27;20394;-59
2023/01/19 02:38:49;;;;;;;;;;;;;;;14.00;58.93;99799.59;2116878;27;19934;-61
2023/01/19 02:39:54;;;;;;;;;;;;;;;13.99;58.64;99798.03;2116532;27;19987;-62
2023/01/19 02:40:58;;;;;;;;;;;;;;;14.00;58.39;99796.88;2116385;27;19927;-60
2023/01/19 02:42:02;;;;;;;;;;;;;;;14.00;58.85;99803.06;2115802;27;20000;-63
2023/01/19 02:43:07;;;;;;;;;;;;;;;14.00;58.54;99799.59;2117044;27;19931;-63
2023/01/19 02:44:09;;;;;;;;;;;;;;;14.00;58.71;99799.59;2118053;27;19931;-63
2023/01/19 02:45:14;;;;;;;;;;;;;;;14.00;58.61;99802.31;2106005;28;19974;-63
2023/01/19 02:46:15;;;;;;;;;;;;;;;13.99;58.57;99804.25;2108045;28;20318;-62
2023/01/19 02:47:18;;;;;;;;;;;;;;;14.00;58.49;99802.31;2115598;27;20402;-62
2023/01/19 02:48:20;;;;;;;;;;;;;;;14.01;58.53;99812.00;2116791;27;19927;-62
2023/01/19 02:49:22;;;;;;;;;;;;;;;14.00;58.43;99805.03;2115302;27;20299;-63
2023/01/19 02:50:34;;;;;;;;;;;;;;;13.99;58.91;99804.25;2115819;27;20390;-61
2023/01/19 02:51:37;;;;;;;;;;;;;;;13.99;58.31;99809.66;2116133;27;20394;-62
2023/01/19 02:52:39;;;;;;;;;;;;;;;13.99;58.27;99808.88;2115603;27;19923;-62
2023/01/19 02:53:49;;;;;;;;;;;;;;;13.99;58.23;99815.09;2113497;27;19931;-61
2023/01/19 02:55:00;;;;;;;;;;;;;;;13.99;58.59;99814.31;2115756;27;19935;-62
2023/01/19 02:56:12;;;;;;;;;;;;;;;13.99;58.68;99809.66;2117915;27;20014;-63
2023/01/19 02:57:29;;;;;;;;;;;;;;;13.99;58.18;99817.81;2115987;27;19932;-62
2023/01/19 02:58:34;;;;;;;;;;;;;;;13.99;58.17;99819.75;2114719;27;19927;-62
2023/01/19 02:59:42;;;;;;;;;;;;;;;13.99;58.24;99817.81;2115609;27;19943;-62
2023/01/19 03:00:52;;;;;;;;;;;;;;;13.98;58.05;99819.00;2115266;27;19934;-61
2023/01/19 03:02:04;;;;;;;;;;;;;;;13.98;58.06;99818.19;2113685;27;20000;-62
2023/01/19 03:03:15;;;;;;;;;;;;;;;13.98;58.14;99812.78;2115963;27;19932;-59
2023/01/19 03:04:21;;;;;;;;;;;;;;;13.98;58.02;99813.56;2116368;27;19930;-62
2023/01/19 03:05:30;;;;;;;;;;;;;;;13.98;58.02;99820.91;2117499;27;20390;-62
2023/01/19 03:06:35;;;;;;;;;;;;;;;13.98;58.18;99820.91;2117106;27;20268;-62
2023/01/19 03:07:44;;;;;;;;;;;;;;;13.98;58.28;99821.69;2115166;27;19923;-62
2023/01/19 03:08:49;;;;;;;;;;;;;;;13.97;58.47;99822.09;2116332;27;19935;-58
2023/01/19 03:09:57;;;;;;;;;;;;;;;13.97;58.39;99817.41;2115232;27;20357;-61
2023/01/19 03:11:02;;;;;;;;;;;;;;;13.97;58.31;99820.13;2115960;27;19927;-61
2023/01/19 03:12:08;;;;;;;;;;;;;;;13.97;58.28;99816.66;2116870;27;19927;-60
2023/01/19 03:13:12;;;;;;;;;;;;;;;13.97;58.27;99822.09;2116434;27;19927;-62
2023/01/19 03:14:19;;;;;;;;;;;;;;;13.97;57.84;99827.50;2116634;27;19927;-61
2023/01/19 03:15:26;;;;;;;;;;;;;;;13.97;57.96;99824.81;2116307;27;19934;-62
2023/01/19 03:16:34;;;;;;;;;;;;;;;13.97;58.27;99819.38;2115093;27;20378;-58
2023/01/19 03:17:36;;;;;;;;;;;;;;;13.97;57.93;99822.09;2115634;27;20458;-58
2023/01/19 03:18:41;;;;;;;;;;;;;;;13.97;57.83;99820.13;2117737;27;19928;-61
2023/01/19 03:19:46;;;;;;;;;;;;;;;13.97;57.74;99811.22;2117164;27;19934;-59
2023/01/19 03:20:49;;;;;;;;;;;;;;;13.96;57.77;99817.81;2116081;27;19935;-60
2023/01/19 03:21:54;;;;;;;;;;;;;;;13.96;58.32;99815.88;2115617;27;19960;-59
2023/01/19 03:22:59;;;;;;;;;;;;;;;13.97;57.86;99816.66;2114613;27;19938;-61
2023/01/19 03:24:04;;;;;;;;;;;;;;;13.96;57.73;99815.88;2116432;27;19963;-61
2023/01/19 03:25:06;;;;;;;;;;;;;;;13.96;58.14;99828.66;2117936;27;19927;-62
2023/01/19 03:26:13;;;;;;;;;;;;;;;13.96;57.73;99836.81;2116037;27;19928;-59
2023/01/19 03:27:17;;;;;;;;;;;;;;;13.96;57.86;99831.38;2114627;27;19928;-61
2023/01/19 03:28:22;;;;;;;;;;;;;;;13.95;57.97;99821.69;2116575;27;19928;-62
2023/01/19 03:29:26;;;;;;;;;;;;;;;13.96;57.54;99831.38;2116082;27;20352;-62
2023/01/19 03:30:32;;;;;;;;;;;;;;;13.95;57.62;99829.84;2115348;28;19928;-57
2023/01/19 03:31:35;;;;;;;;;;;;;;;13.95;57.91;99835.25;2116904;27;20468;-61
2023/01/19 03:32:41;;;;;;;;;;;;;;;13.95;57.62;99837.97;2115983;27;19934;-62
2023/01/19 03:33:47;;;;;;;;;;;;;;;13.94;57.87;99837.19;2115830;27;19924;-62
2023/01/19 03:34:50;;;;;;;;;;;;;;;13.91;57.38;99834.47;2109050;28;19928;-61
2023/01/19 03:35:56;;;;;;;;;;;;;;;13.94;57.57;99837.19;2108646;28;20003;-61
2023/01/19 03:37:00;;;;;;;;;;;;;;;13.95;57.41;99846.13;2116552;27;19928;-62
2023/01/19 03:38:05;;;;;;;;;;;;;;;13.94;57.68;99839.91;2106108;28;19934;-62
2023/01/19 03:39:08;;;;;;;;;;;;;;;13.95;57.54;99846.13;2098223;28;19933;-61
2023/01/19 03:40:12;;;;;;;;;;;;;;;13.95;57.46;99846.13;2106401;28;19932;-57
2023/01/19 03:41:16;;;;;;;;;;;;;;;13.93;57.35;99849.22;2116326;27;19935;-56
2023/01/19 03:42:19;;;;;;;;;;;;;;;13.94;57.27;99850.00;2116498;27;20227;-57
2023/01/19 03:43:25;;;;;;;;;;;;;;;13.93;57.24;99849.22;2116591;27;19975;-56
2023/01/19 03:44:28;;;;;;;;;;;;;;;13.94;57.77;99852.72;2117085;28;19939;-55
2023/01/19 03:45:37;;;;;;;;;;;;;;;13.93;57.42;99857.34;2105624;28;19934;-55
2023/01/19 03:46:45;;;;;;;;;;;;;;;13.94;57.51;99856.19;2108548;28;19928;-55
2023/01/19 03:47:47;;;;;;;;;;;;;;;13.93;57.64;99859.28;2114808;27;19941;-57
2023/01/19 03:48:50;;;;;;;;;;;;;;;13.93;57.17;99853.84;2114564;27;19927;-57
2023/01/19 03:49:53;;;;;;;;;;;;;;;13.93;57.09;99870.13;2114928;28;19924;-55
2023/01/19 03:50:55;;;;;;;;;;;;;;;13.93;57.34;99870.13;2107509;28;19939;-55
2023/01/19 03:51:57;;;;;;;;;;;;;;;13.93;57.41;99870.13;2107491;28;19931;-56
2023/01/19 03:53:01;;;;;;;;;;;;;;;13.92;57.18;99869.34;2116246;28;19928;-55
2023/01/19 03:54:04;;;;;;;;;;;;;;;13.91;57.00;99867.03;2116143;28;19928;-55
2023/01/19 03:55:08;;;;;;;;;;;;;;;13.91;57.34;99867.81;2114682;28;20306;-55
2023/01/19 03:56:15;;;;;;;;;;;;;;;13.91;56.84;99867.81;2114639;28;19927;-56
2023/01/19 03:57:20;;;;;;;;;;;;;;;13.91;56.96;99872.47;2106092;28;19962;-56
2023/01/19 03:58:22;;;;;;;;;;;;;;;13.91;57.33;99867.03;2095202;28;19932;-55
2023/01/19 03:59:25;;;;;;;;;;;;;;;13.90;56.76;99882.56;2108757;28;20378;-60
2023/01/19 04:00:33;;;;;;;;;;;;;;;13.90;56.80;99874.41;2116594;28;20343;-61
2023/01/19 04:01:36;;;;;;;;;;;;;;;13.90;56.96;99881.78;2114817;28;19939;-62
2023/01/19 04:02:38;;;;;;;;;;;;;;;13.90;56.82;99881.78;2116280;28;19983;-62
2023/01/19 04:03:41;;;;;;;;;;;;;;;13.90;56.83;99876.34;2115745;28;19932;-62
2023/01/19 04:04:42;;;;;;;;;;;;;;;13.90;56.78;99881.78;2116735;28;20401;-63
2023/01/19 04:05:45;;;;;;;;;;;;;;;13.89;57.17;99882.94;2116365;28;20013;-63
2023/01/19 04:06:47;;;;;;;;;;;;;;;13.89;57.10;99882.94;2115984;28;19932;-59
2023/01/19 04:07:50;;;;;;;;;;;;;;;13.88;56.94;99884.88;2112385;28;19928;-61
2023/01/19 04:08:52;;;;;;;;;;;;;;;13.88;57.10;99889.50;2115659;28;19924;-62
2023/01/19 04:09:55;;;;;;;;;;;;;;;13.88;56.71;99890.28;2117375;28;20382;-62
2023/01/19 04:10:57;;;;;;;;;;;;;;;13.88;57.05;99895.72;2116120;28;19927;-61
2023/01/19 04:12:00;;;;;;;;;;;;;;;13.88;56.62;99894.94;2115088;28;20401;-62
2023/01/19 04:13:04;;;;;;;;;;;;;;;13.88;57.00;99903.88;2115191;28;19923;-62
2023/01/19 04:14:06;;;;;;;;;;;;;;;13.87;56.92;99904.25;2115251;28;20445;-62
2023/01/19 04:15:08;;;;;;;;;;;;;;;13.88;56.72;99908.50;2114622;28;19927;-62
2023/01/19 04:16:11;;;;;;;;;;;;;;;13.88;56.54;99905.78;2114001;28;19950;-61
2023/01/19 04:17:13;;;;;;;;;;;;;;;13.87;56.43;99906.97;2114737;28;19972;-63
2023/01/19 04:18:15;;;;;;;;;;;;;;;13.87;56.67;99904.25;2115602;28;19928;-58
2023/01/19 04:19:17;;;;;;;;;;;;;;;13.87;56.48;99909.69;2114651;28;19928;-62
2023/01/19 04:20:20;;;;;;;;;;;;;;;13.86;56.98;99908.13;2115441;28;19935;-61
2023/01/19 04:21:22;;;;;;;;;;;;;;;13.86;56.44;99913.56;2114311;28;19939;-63
2023/01/19 04:22:24;;;;;;;;;;;;;;;13.86;56.77;99913.56;2116134;28;19935;-61
2023/01/19 04:23:26;;;;;;;;;;;;;;;13.86;56.24;99910.84;2116214;28;19934;-61
2023/01/19 04:24:28;;;;;;;;;;;;;;;13.84;56.25;99913.94;2116566;28;19932;-61
2023/01/19 04:25:30;;;;;;;;;;;;;;;13.85;56.60;99915.47;2115050;28;19935;-61
2023/01/19 04:26:32;;;;;;;;;;;;;;;13.84;56.09;99924.00;2114548;28;19928;-62
2023/01/19 04:27:34;;;;;;;;;;;;;;;13.85;55.97;99925.56;2116517;28;19924;-63
2023/01/19 04:28:38;;;;;;;;;;;;;;;13.83;56.48;99925.94;2115380;28;19931;-60
2023/01/19 04:29:40;;;;;;;;;;;;;;;13.84;56.15;99929.44;2114953;28;20409;-60
2023/01/19 04:30:43;;;;;;;;;;;;;;;13.84;56.13;99926.72;2114336;28;19958;-61
2023/01/19 04:31:44;;;;;;;;;;;;;;;13.84;56.45;99932.16;2116347;28;19928;-62
2023/01/19 04:32:47;;;;;;;;;;;;;;;13.82;56.09;99932.53;2115920;28;19934;-61
2023/01/19 04:33:49;;;;;;;;;;;;;;;13.82;56.06;99926.31;2115933;28;19928;-62
2023/01/19 04:34:51;;;;;;;;;;;;;;;13.82;56.17;99937.19;2114515;28;19923;-62
2023/01/19 04:35:54;;;;;;;;;;;;;;;13.82;56.30;99942.59;2116488;28;19924;-62
2023/01/19 04:36:57;;;;;;;;;;;;;;;13.81;56.49;99939.09;2115542;28;20360;-61
2023/01/19 04:37:59;;;;;;;;;;;;;;;13.81;55.99;99941.06;2116199;28;19927;-62
2023/01/19 04:39:01;;;;;;;;;;;;;;;13.81;56.17;99941.81;2115591;28;19928;-63
2023/01/19 04:40:03;;;;;;;;;;;;;;;13.81;56.52;99943.78;2116264;28;20005;-63
2023/01/19 04:41:06;;;;;;;;;;;;;;;13.81;55.83;99946.50;2115385;27;20481;-61
2023/01/19 04:42:07;;;;;;;;;;;;;;;13.81;55.97;99946.50;2115644;27;20302;-60
2023/01/19 04:43:10;;;;;;;;;;;;;;;13.81;56.16;99954.63;2119083;27;19928;-61
2023/01/19 04:44:13;;;;;;;;;;;;;;;13.80;55.85;99953.84;2116974;27;19976;-62
2023/01/19 04:45:16;;;;;;;;;;;;;;;13.80;56.21;99958.47;2116928;27;19935;-62
2023/01/19 04:46:17;;;;;;;;;;;;;;;13.79;56.15;99962.38;2117598;27;19924;-62
2023/01/19 04:47:20;;;;;;;;;;;;;;;13.80;55.90;99953.06;2117963;27;19924;-61
2023/01/19 04:48:22;;;;;;;;;;;;;;;13.81;55.81;99965.47;2118982;27;19923;-62
2023/01/19 04:49:24;;;;;;;;;;;;;;;13.78;55.95;99960.81;2117538;27;19981;-63
2023/01/19 04:50:26;;;;;;;;;;;;;;;13.78;56.03;99955.41;2117468;27;19934;-61
2023/01/19 04:51:28;;;;;;;;;;;;;;;13.78;55.73;99958.09;2116629;27;19931;-59
2023/01/19 04:52:33;;;;;;;;;;;;;;;13.78;55.74;99960.81;2118081;27;19935;-62
2023/01/19 04:53:36;;;;;;;;;;;;;;;13.77;56.08;99961.97;2108381;28;19928;-61
2023/01/19 04:54:37;;;;;;;;;;;;;;;13.77;55.90;99967.38;2107357;28;20592;-62
2023/01/19 04:55:40;;;;;;;;;;;;;;;13.78;55.63;99971.66;2116907;27;20287;-62
2023/01/19 04:56:42;;;;;;;;;;;;;;;13.77;55.58;99970.09;2116817;27;19923;-62
2023/01/19 04:57:44;;;;;;;;;;;;;;;13.76;55.80;99968.56;2118408;27;19927;-62
2023/01/19 04:58:46;;;;;;;;;;;;;;;13.76;55.81;99968.56;2117235;27;20312;-62
2023/01/19 04:59:50;;;;;;;;;;;;;;;13.75;55.45;99975.91;2116388;27;19947;-62
2023/01/19 05:00:52;;;;;;;;;;;;;;;13.76;55.65;99969.34;2115058;27;20299;-63
2023/01/19 05:01:55;;;;;;;;;;;;;;;13.77;55.49;99975.53;2116771;27;20019;-62
2023/01/19 05:02:57;;;;;;;;;;;;;;;13.76;55.86;99973.97;2117930;27;20026;-62
2023/01/19 05:04:00;;;;;;;;;;;;;;;13.75;55.67;99972.44;2116826;27;19963;-62
2023/01/19 05:05:03;;;;;;;;;;;;;;;13.75;55.78;99977.88;2115933;27;20295;-62
2023/01/19 05:06:06;;;;;;;;;;;;;;;13.75;55.57;99977.88;2116926;27;20378;-62
2023/01/19 05:07:08;;;;;;;;;;;;;;;13.74;55.61;99976.28;2116632;27;19942;-62
2023/01/19 05:08:10;;;;;;;;;;;;;;;13.74;55.66;99981.72;2117927;27;19927;-62
2023/01/19 05:09:14;;;;;;;;;;;;;;;13.74;55.73;99981.72;2116080;27;19934;-62
2023/01/19 05:10:16;;;;;;;;;;;;;;;13.74;55.43;99981.72;2117089;27;19927;-64
2023/01/19 05:11:18;;;;;;;;;;;;;;;13.74;55.61;99987.16;2116862;27;19973;-62
2023/01/19 05:12:21;;;;;;;;;;;;;;;13.73;55.67;99988.31;2118468;27;19935;-61
2023/01/19 05:13:22;;;;;;;;;;;;;;;13.72;55.61;99979.38;2117154;27;19984;-63
2023/01/19 05:14:25;;;;;;;;;;;;;;;13.73;55.99;99991.03;2117352;27;20000;-63
2023/01/19 05:15:28;;;;;;;;;;;;;;;13.73;55.68;99991.03;2099443;28;19933;-63
2023/01/19 05:16:31;;;;;;;;;;;;;;;13.72;55.48;99989.44;2100757;28;19940;-63
2023/01/19 05:17:33;;;;;;;;;;;;;;;13.72;55.48;100001.09;2116508;27;19927;-61
2023/01/19 05:18:35;;;;;;;;;;;;;;;13.72;55.81;100000.31;2105770;28;19935;-62
2023/01/19 05:19:38;;;;;;;;;;;;;;;13.72;55.85;100001.09;2106880;28;19932;-58
2023/01/19 05:20:40;;;;;;;;;;;;;;;13.71;55.61;100004.19;2109638;28;20481;-63
2023/01/19 05:21:42;;;;;;;;;;;;;;;13.70;55.57;99997.97;2108350;28;20347;-63
2023/01/19 05:22:47;;;;;;;;;;;;;;;13.70;55.15;100008.06;2118220;27;19935;-63
2023/01/19 05:23:50;;;;;;;;;;;;;;;13.70;55.30;100005.34;2116778;27;19927;-62
2023/01/19 05:24:51;;;;;;;;;;;;;;;13.70;55.24;100002.66;2115904;27;20400;-63
2023/01/19 05:25:55;;;;;;;;;;;;;;;13.70;55.49;100008.06;2117661;27;19934;-63
2023/01/19 05:26:57;;;;;;;;;;;;;;;13.70;55.37;100002.66;2116922;27;19931;-62
2023/01/19 05:28:01;;;;;;;;;;;;;;;13.70;55.72;100008.81;2118611;27;19928;-63
2023/01/19 05:29:03;;;;;;;;;;;;;;;13.70;55.73;100013.50;2117380;27;19934;-61
2023/01/19 05:30:06;;;;;;;;;;;;;;;13.69;55.18;100010.00;2115452;27;19924;-63
2023/01/19 05:31:09;;;;;;;;;;;;;;;13.69;55.39;100012.72;2116725;27;20769;-60
2023/01/19 05:32:12;;;;;;;;;;;;;;;13.68;55.42;100018.50;2117561;27;20008;-63
2023/01/19 05:33:14;;;;;;;;;;;;;;;13.68;55.61;100013.09;2116718;27;19934;-62
2023/01/19 05:34:16;;;;;;;;;;;;;;;13.68;55.61;100015.81;2115113;27;19928;-63
2023/01/19 05:35:18;;;;;;;;;;;;;;;13.69;55.46;100017.34;2115942;27;20067;-63
2023/01/19 05:36:32;;;;;;;;;;;;;;;13.68;55.64;100018.50;2114730;27;20560;-63
2023/01/19 05:37:34;;;;;;;;;;;;;;;13.68;55.61;100021.22;2117530;27;19950;-63
2023/01/19 05:38:36;;;;;;;;;;;;;;;13.69;55.40;100030.91;2115110;27;19935;-62
2023/01/19 05:39:38;;;;;;;;;;;;;;;13.68;55.30;100023.94;2116642;27;20374;-62
2023/01/19 05:40:40;;;;;;;;;;;;;;;13.68;55.06;100026.66;2115888;27;19928;-62